Wetterdaten: Woche 02.05.16 - 08.05.16 (KW18)
Datum Zeit Temp. A. Feuchte A. Luftdruck Regen Wind Richtung Taupunkt Windchill Windben
02.05.2016 00:00 7,4 C 95 % 1022,6 hPa 0,0 l/m 0,3 km/h (0 Bft) O-NO 6,6 C 7,4 C 1,1 km/h (1 Bft)
02.05.2016 01:00 6,2 C 95 % 1022,6 hPa 0,0 l/m 0,0 km/h (0 Bft) O-NO 5,4 C 6,2 C 0,4 km/h (0 Bft)
02.05.2016 02:00 4,6 C 96 % 1022,6 hPa 0,0 l/m 0,0 km/h (0 Bft) O-NO 4,0 C 4,6 C 0,2 km/h (0 Bft)
02.05.2016 03:00 3,9 C 96 % 1022,6 hPa 0,0 l/m 0,0 km/h (0 Bft) O-NO 3,3 C 3,9 C 0,1 km/h (0 Bft)
02.05.2016 04:00 3,2 C 97 % 1022,8 hPa 0,0 l/m 0,0 km/h (0 Bft) O-NO 2,8 C 3,2 C 0,3 km/h (0 Bft)
02.05.2016 05:00 2,3 C 97 % 1023,0 hPa 0,0 l/m 0,0 km/h (0 Bft) O-NO 1,9 C 2,3 C 0,5 km/h (0 Bft)
02.05.2016 06:00 2,0 C 97 % 1023,2 hPa 0,0 l/m 0,0 km/h (0 Bft) O-NO 1,6 C 2,0 C 0,2 km/h (0 Bft)
02.05.2016 07:00 3,2 C 98 % 1023,4 hPa 0,0 l/m 0,1 km/h (0 Bft) O-NO 2,9 C 3,2 C 1,2 km/h (1 Bft)
02.05.2016 08:00 7,5 C 92 % 1023,3 hPa 0,3 l/m 1,3 km/h (1 Bft) O-NO 6,3 C 7,5 C 3,2 km/h (1 Bft)
02.05.2016 09:00 9,6 C 81 % 1023,2 hPa 0,0 l/m 2,7 km/h (1 Bft) W 6,5 C 9,6 C 6,7 km/h (2 Bft)
02.05.2016 10:00 11,6 C 72 % 1022,9 hPa 0,0 l/m 3,1 km/h (1 Bft) S-SW 6,6 C 11,6 C 8,0 km/h (2 Bft)
02.05.2016 11:00 13,3 C 65 % 1022,4 hPa 0,0 l/m 4,2 km/h (1 Bft) W-NW 6,8 C 13,3 C 9,5 km/h (2 Bft)
02.05.2016 12:00 14,2 C 61 % 1022,1 hPa 0,0 l/m 3,8 km/h (1 Bft) W-NW 6,7 C 14,2 C 8,6 km/h (2 Bft)
02.05.2016 13:00 14,5 C 56 % 1021,6 hPa 0,0 l/m 4,3 km/h (1 Bft) NW 5,7 C 14,5 C 12,2 km/h (2 Bft)
02.05.2016 14:00 15,7 C 47 % 1021,2 hPa 0,0 l/m 4,9 km/h (1 Bft) W-NW 4,3 C 15,7 C 12,2 km/h (2 Bft)
02.05.2016 15:00 16,4 C 44 % 1020,9 hPa 0,0 l/m 4,4 km/h (1 Bft) W-NW 3,9 C 16,3 C 10,5 km/h (2 Bft)
02.05.2016 16:00 16,9 C 41 % 1020,5 hPa 0,0 l/m 4,2 km/h (1 Bft) N-NO 3,6 C 16,9 C 9,9 km/h (2 Bft)
02.05.2016 17:00 16,7 C 41 % 1020,0 hPa 0,0 l/m 3,8 km/h (1 Bft) NW 3,3 C 16,7 C 9,3 km/h (2 Bft)
02.05.2016 18:00 16,3 C 40 % 1019,8 hPa 0,0 l/m 2,8 km/h (1 Bft) NW 2,6 C 16,3 C 6,4 km/h (2 Bft)
02.05.2016 19:00 14,8 C 45 % 1019,5 hPa 0,0 l/m 1,5 km/h (1 Bft) W 2,9 C 14,8 C 4,5 km/h (1 Bft)
02.05.2016 20:00 11,3 C 68 % 1019,6 hPa 0,0 l/m 0,1 km/h (0 Bft) W 5,5 C 11,3 C 1,3 km/h (1 Bft)
02.05.2016 21:00 8,5 C 78 % 1019,8 hPa 0,0 l/m 0,1 km/h (0 Bft) W 4,8 C 8,5 C 1,5 km/h (1 Bft)
02.05.2016 22:00 5,9 C 85 % 1020,2 hPa 0,0 l/m 0,1 km/h (0 Bft) W 3,6 C 5,9 C 0,9 km/h (0 Bft)
02.05.2016 23:00 4,3 C 89 % 1020,3 hPa 0,0 l/m 0,0 km/h (0 Bft) W 2,7 C 4,3 C 0,1 km/h (0 Bft)
03.05.2016 00:00 3,6 C 91 % 1020,4 hPa 0,0 l/m 0,0 km/h (0 Bft) W 2,4 C 3,6 C 0,0 km/h (0 Bft)
03.05.2016 01:00 2,9 C 93 % 1020,3 hPa 0,0 l/m 0,0 km/h (0 Bft) W 1,9 C 2,9 C 0,0 km/h (0 Bft)
03.05.2016 02:00 2,3 C 94 % 1019,8 hPa 0,0 l/m 0,0 km/h (0 Bft) W 1,4 C 2,3 C 0,0 km/h (0 Bft)
03.05.2016 03:00 2,2 C 94 % 1019,7 hPa 0,0 l/m 0,0 km/h (0 Bft) W 1,4 C 2,2 C 0,2 km/h (0 Bft)
03.05.2016 04:00 2,3 C 96 % 1019,7 hPa 0,0 l/m 0,5 km/h (0 Bft) W 1,7 C 2,3 C 2,1 km/h (1 Bft)
03.05.2016 05:00 2,9 C 95 % 1019,6 hPa 0,0 l/m 0,2 km/h (0 Bft) W 2,2 C 2,9 C 1,6 km/h (1 Bft)
03.05.2016 06:00 2,8 C 95 % 1019,7 hPa 0,0 l/m 0,1 km/h (0 Bft) W 2,2 C 2,8 C 1,2 km/h (1 Bft)
03.05.2016 07:00 4,4 C 95 % 1019,8 hPa 0,0 l/m 0,1 km/h (0 Bft) W 3,7 C 4,4 C 1,1 km/h (0 Bft)
03.05.2016 08:00 9,9 C 77 % 1019,8 hPa 0,0 l/m 2,9 km/h (1 Bft) O 5,9 C 9,9 C 6,8 km/h (2 Bft)
03.05.2016 09:00 11,7 C 65 % 1019,9 hPa 0,0 l/m 4,4 km/h (1 Bft) O 5,4 C 11,6 C 9,7 km/h (2 Bft)
03.05.2016 10:00 12,8 C 60 % 1020,3 hPa 0,0 l/m 4,4 km/h (1 Bft) O 5,2 C 12,8 C 11,9 km/h (2 Bft)
03.05.2016 11:00 12,9 C 62 % 1020,2 hPa 0,0 l/m 4,6 km/h (1 Bft) O 5,8 C 12,9 C 11,5 km/h (2 Bft)
03.05.2016 12:00 11,7 C 69 % 1020,2 hPa 0,3 l/m 3,9 km/h (1 Bft) O 6,1 C 11,7 C 8,7 km/h (2 Bft)
03.05.2016 13:00 9,0 C 86 % 1020,9 hPa 0,3 l/m 4,2 km/h (1 Bft) O 6,8 C 9,0 C 12,5 km/h (2 Bft)
03.05.2016 14:00 8,4 C 87 % 1021,5 hPa 0,0 l/m 3,9 km/h (1 Bft) O 6,3 C 8,4 C 9,7 km/h (2 Bft)
03.05.2016 15:00 8,0 C 87 % 1021,8 hPa 0,3 l/m 3,8 km/h (1 Bft) O-NO 6,0 C 8,0 C 7,8 km/h (2 Bft)
03.05.2016 16:00 8,1 C 86 % 1022,1 hPa 0,0 l/m 4,6 km/h (1 Bft) O-NO 5,9 C 8,1 C 11,3 km/h (2 Bft)
03.05.2016 17:00 8,3 C 80 % 1022,8 hPa 0,0 l/m 4,7 km/h (1 Bft) O-NO 5,1 C 8,2 C 11,8 km/h (2 Bft)
03.05.2016 18:00 8,0 C 80 % 1023,1 hPa 0,0 l/m 2,6 km/h (1 Bft) O-NO 4,8 C 8,0 C 6,5 km/h (2 Bft)
03.05.2016 19:00 8,2 C 78 % 1023,7 hPa 0,0 l/m 2,4 km/h (1 Bft) O 4,7 C 8,2 C 7,6 km/h (2 Bft)
03.05.2016 20:00 7,2 C 81 % 1024,7 hPa 0,0 l/m 1,6 km/h (1 Bft) O 4,2 C 7,2 C 4,5 km/h (1 Bft)
03.05.2016 21:00 6,5 C 84 % 1025,5 hPa 0,0 l/m 1,6 km/h (1 Bft) O 4,1 C 6,5 C 3,5 km/h (1 Bft)
03.05.2016 22:00 5,3 C 90 % 1026,5 hPa 0,0 l/m 0,1 km/h (0 Bft) O 3,8 C 5,3 C 1,1 km/h (0 Bft)
03.05.2016 23:00 4,0 C 92 % 1026,9 hPa 0,0 l/m 0,1 km/h (0 Bft) O 2,8 C 4,0 C 1,1 km/h (1 Bft)
04.05.2016 00:00 2,9 C 93 % 1027,0 hPa 0,0 l/m 0,0 km/h (0 Bft) O 2,0 C 2,9 C 0,6 km/h (0 Bft)
04.05.2016 01:00 2,4 C 96 % 1027,3 hPa 0,0 l/m 0,2 km/h (0 Bft) O 1,8 C 2,4 C 0,9 km/h (0 Bft)
04.05.2016 02:00 2,4 C 96 % 1027,2 hPa 0,0 l/m 0,1 km/h (0 Bft) O 1,8 C 2,4 C 0,8 km/h (0 Bft)
04.05.2016 03:00 1,8 C 96 % 1027,2 hPa 0,0 l/m 0,0 km/h (0 Bft) O 1,2 C 1,8 C 0,4 km/h (0 Bft)
04.05.2016 04:00 1,6 C 97 % 1027,3 hPa 0,0 l/m 0,2 km/h (0 Bft) O 1,1 C 1,6 C 1,5 km/h (1 Bft)
04.05.2016 05:00 1,1 C 97 % 1027,4 hPa 0,0 l/m 0,5 km/h (0 Bft) O 0,7 C 1,1 C 2,0 km/h (1 Bft)
04.05.2016 06:00 0,5 C 96 % 1027,5 hPa 0,0 l/m 0,4 km/h (0 Bft) O -0,0 C 0,5 C 1,5 km/h (1 Bft)
04.05.2016 07:00 0,7 C 97 % 1028,1 hPa 0,0 l/m 0,1 km/h (0 Bft) O 0,3 C 0,7 C 0,8 km/h (0 Bft)
04.05.2016 08:00 4,8 C 94 % 1028,3 hPa 0,0 l/m 0,9 km/h (0 Bft) O 3,9 C 4,8 C 2,4 km/h (1 Bft)
04.05.2016 09:00 7,7 C 80 % 1028,1 hPa 0,0 l/m 2,6 km/h (1 Bft) W 4,3 C 7,7 C 5,7 km/h (2 Bft)
04.05.2016 10:00 10,0 C 67 % 1028,0 hPa 0,0 l/m 3,9 km/h (1 Bft) W-NW 4,2 C 10,0 C 9,3 km/h (2 Bft)
04.05.2016 11:00 11,2 C 55 % 1027,9 hPa 0,0 l/m 4,2 km/h (1 Bft) NW 2,4 C 11,2 C 9,9 km/h (2 Bft)
04.05.2016 12:00 12,2 C 49 % 1027,7 hPa 0,0 l/m 5,3 km/h (1 Bft) W-NW 1,7 C 12,1 C 10,5 km/h (2 Bft)
04.05.2016 13:00 12,9 C 44 % 1027,3 hPa 0,0 l/m 4,8 km/h (1 Bft) W-NW 0,8 C 12,9 C 12,0 km/h (2 Bft)
04.05.2016 14:00 13,7 C 39 % 1026,9 hPa 0,0 l/m 4,4 km/h (1 Bft) W-NW -0,1 C 13,7 C 9,9 km/h (2 Bft)
04.05.2016 15:00 13,9 C 37 % 1026,5 hPa 0,0 l/m 4,3 km/h (1 Bft) N-NW -0,4 C 13,9 C 8,8 km/h (2 Bft)
04.05.2016 16:00 14,3 C 36 % 1026,0 hPa 0,0 l/m 3,6 km/h (1 Bft) W -0,8 C 14,3 C 9,4 km/h (2 Bft)
04.05.2016 17:00 13,7 C 36 % 1025,6 hPa 0,0 l/m 3,5 km/h (1 Bft) W-NW -1,0 C 13,7 C 8,4 km/h (2 Bft)
04.05.2016 18:00 13,3 C 36 % 1025,5 hPa 0,0 l/m 3,6 km/h (1 Bft) SW -1,5 C 13,3 C 9,1 km/h (2 Bft)
04.05.2016 19:00 11,5 C 40 % 1025,5 hPa 0,0 l/m 2,6 km/h (1 Bft) W-NW -1,7 C 11,5 C 7,9 km/h (2 Bft)
04.05.2016 20:00 9,5 C 47 % 1025,6 hPa 0,0 l/m 1,2 km/h (1 Bft) W-NW -1,3 C 9,5 C 4,0 km/h (1 Bft)
04.05.2016 21:00 6,7 C 62 % 1026,0 hPa 0,0 l/m 0,0 km/h (0 Bft) N -0,2 C 6,7 C 0,3 km/h (0 Bft)
04.05.2016 22:00 4,3 C 72 % 1026,3 hPa 0,0 l/m 0,0 km/h (0 Bft) N -0,2 C 4,3 C 0,1 km/h (0 Bft)
04.05.2016 23:00 2,8 C 79 % 1026,3 hPa 0,0 l/m 0,0 km/h (0 Bft) N -0,4 C 2,8 C 0,0 km/h (0 Bft)
05.05.2016 00:00 1,9 C 83 % 1026,0 hPa 0,0 l/m 0,0 km/h (0 Bft) SW -0,8 C 1,9 C 0,0 km/h (0 Bft)
05.05.2016 01:00 0,8 C 86 % 1025,7 hPa 0,0 l/m 0,0 km/h (0 Bft) SW -1,3 C 0,8 C 0,0 km/h (0 Bft)
05.05.2016 02:00 -0,0 C 88 % 1025,5 hPa 0,0 l/m 0,0 km/h (0 Bft) SW -1,8 C -0,0 C 0,1 km/h (0 Bft)
05.05.2016 03:00 -0,4 C 89 % 1025,2 hPa 0,0 l/m 0,0 km/h (0 Bft) SW -2,0 C -0,4 C 0,0 km/h (0 Bft)
05.05.2016 04:00 -1,1 C 90 % 1025,0 hPa 0,0 l/m 0,0 km/h (0 Bft) SW -2,5 C -1,1 C 0,0 km/h (0 Bft)
05.05.2016 05:00 -1,7 C 92 % 1025,0 hPa 0,0 l/m 0,0 km/h (0 Bft) SW -2,8 C -1,7 C 0,1 km/h (0 Bft)
05.05.2016 06:00 -1,8 C 92 % 1024,8 hPa 0,0 l/m 0,0 km/h (0 Bft) SW -2,9 C -1,8 C 0,2 km/h (0 Bft)
05.05.2016 07:00 0,8 C 90 % 1024,3 hPa 0,0 l/m 1,8 km/h (1 Bft) W -0,7 C 0,8 C 6,4 km/h (2 Bft)
05.05.2016 08:00 6,9 C 70 % 1023,7 hPa 0,0 l/m 4,7 km/h (1 Bft) SW 1,8 C 6,8 C 12,6 km/h (2 Bft)
05.05.2016 09:00 8,9 C 64 % 1023,3 hPa 0,0 l/m 4,7 km/h (1 Bft) SW 2,4 C 8,9 C 10,9 km/h (2 Bft)
05.05.2016 10:00 11,6 C 54 % 1022,9 hPa 0,0 l/m 5,1 km/h (1 Bft) NW 2,5 C 11,5 C 12,8 km/h (3 Bft)
05.05.2016 11:00 12,8 C 50 % 1022,6 hPa 0,0 l/m 7,7 km/h (2 Bft) W-NW 2,7 C 11,9 C 18,3 km/h (3 Bft)
05.05.2016 12:00 13,7 C 48 % 1022,3 hPa 0,0 l/m 8,4 km/h (2 Bft) W 2,9 C 12,5 C 17,1 km/h (3 Bft)
05.05.2016 13:00 15,1 C 47 % 1021,7 hPa 0,0 l/m 7,3 km/h (2 Bft) NW 3,8 C 14,6 C 18,8 km/h (3 Bft)
05.05.2016 14:00 16,4 C 44 % 1021,0 hPa 0,0 l/m 7,0 km/h (2 Bft) NW 4,1 C 15,9 C 17,0 km/h (3 Bft)
05.05.2016 15:00 16,9 C 43 % 1020,4 hPa 0,0 l/m 7,4 km/h (2 Bft) NW 4,3 C 16,3 C 16,3 km/h (3 Bft)
05.05.2016 16:00 17,6 C 42 % 1019,7 hPa 0,0 l/m 6,7 km/h (2 Bft) W 4,4 C 17,3 C 16,6 km/h (3 Bft)
05.05.2016 17:00 17,7 C 42 % 1019,3 hPa 0,0 l/m 6,0 km/h (2 Bft) W 4,6 C 17,5 C 15,0 km/h (3 Bft)
05.05.2016 18:00 17,2 C 44 % 1018,8 hPa 0,0 l/m 5,5 km/h (2 Bft) W 4,8 C 17,1 C 12,4 km/h (2 Bft)
05.05.2016 19:00 15,9 C 49 % 1018,5 hPa 0,0 l/m 3,4 km/h (1 Bft) S-SW 5,1 C 15,9 C 9,9 km/h (2 Bft)
05.05.2016 20:00 14,0 C 56 % 1018,5 hPa 0,0 l/m 1,8 km/h (1 Bft) SW 5,4 C 14,0 C 5,4 km/h (2 Bft)
05.05.2016 21:00 12,5 C 63 % 1018,6 hPa 0,0 l/m 1,1 km/h (1 Bft) SW 5,6 C 12,5 C 3,6 km/h (1 Bft)
05.05.2016 22:00 9,2 C 76 % 1018,7 hPa 0,0 l/m 0,1 km/h (0 Bft) W-NW 5,2 C 9,2 C 0,9 km/h (0 Bft)
05.05.2016 23:00 6,8 C 84 % 1018,4 hPa 0,0 l/m 0,1 km/h (0 Bft) W-NW 4,3 C 6,8 C 0,6 km/h (0 Bft)
06.05.2016 00:00 5,7 C 87 % 1018,2 hPa 0,0 l/m 0,0 km/h (0 Bft) W-NW 3,7 C 5,7 C 0,0 km/h (0 Bft)
06.05.2016 01:00 4,4 C 90 % 1018,0 hPa 0,0 l/m 0,0 km/h (0 Bft) W-NW 2,9 C 4,4 C 0,1 km/h (0 Bft)
06.05.2016 02:00 3,5 C 92 % 1017,7 hPa 0,0 l/m 0,0 km/h (0 Bft) W-NW 2,4 C 3,5 C 0,0 km/h (0 Bft)
06.05.2016 03:00 3,1 C 93 % 1017,7 hPa 0,0 l/m 0,0 km/h (0 Bft) W-NW 2,0 C 3,1 C 0,0 km/h (0 Bft)
06.05.2016 04:00 2,4 C 94 % 1017,5 hPa 0,0 l/m 0,0 km/h (0 Bft) W-NW 1,4 C 2,4 C 0,0 km/h (0 Bft)
06.05.2016 05:00 1,8 C 94 % 1017,2 hPa 0,0 l/m 0,0 km/h (0 Bft) W-NW 0,9 C 1,8 C 0,2 km/h (0 Bft)
06.05.2016 06:00 1,5 C 94 % 1017,1 hPa 0,0 l/m 0,0 km/h (0 Bft) N 0,6 C 1,5 C 0,0 km/h (0 Bft)
06.05.2016 15:00 21,8 C 36 % 1013,4 hPa 0,0 l/m 4,8 km/h (1 Bft) O-NO 6,1 C 21,8 C 8,0 km/h (2 Bft)
06.05.2016 16:00 21,9 C 33 % 1013,1 hPa 0,0 l/m 4,2 km/h (1 Bft) W 5,0 C 21,8 C 7,6 km/h (2 Bft)
06.05.2016 17:00 22,1 C 33 % 1012,6 hPa 0,0 l/m 3,7 km/h (1 Bft) NW 4,9 C 22,1 C 6,8 km/h (2 Bft)
06.05.2016 18:00 21,3 C 36 % 1012,2 hPa 0,0 l/m 3,4 km/h (1 Bft) W-NW 5,7 C 21,3 C 6,4 km/h (2 Bft)
06.05.2016 19:00 19,8 C 39 % 1011,8 hPa 0,0 l/m 2,9 km/h (1 Bft) W 5,4 C 19,8 C 5,6 km/h (2 Bft)
06.05.2016 20:00 17,8 C 45 % 1011,8 hPa 0,0 l/m 0,9 km/h (0 Bft) W 5,6 C 17,8 C 2,0 km/h (1 Bft)
06.05.2016 21:00 13,6 C 62 % 1012,2 hPa 0,0 l/m 0,0 km/h (0 Bft) N 6,5 C 13,6 C 0,0 km/h (0 Bft)
06.05.2016 22:00 10,5 C 73 % 1012,4 hPa 0,0 l/m 0,0 km/h (0 Bft) N 5,9 C 10,5 C 0,1 km/h (0 Bft)
06.05.2016 23:00 8,6 C 79 % 1012,5 hPa 0,0 l/m 0,0 km/h (0 Bft) N 5,1 C 8,6 C 0,3 km/h (0 Bft)
07.05.2016 00:00 7,2 C 83 % 1012,5 hPa 0,0 l/m 0,0 km/h (0 Bft) N 4,4 C 7,2 C 0,1 km/h (0 Bft)
07.05.2016 01:00 6,2 C 85 % 1012,4 hPa 0,0 l/m 0,0 km/h (0 Bft) N 3,9 C 6,2 C 0,1 km/h (0 Bft)
07.05.2016 02:00 5,5 C 87 % 1012,2 hPa 0,0 l/m 0,0 km/h (0 Bft) N 3,6 C 5,5 C 0,0 km/h (0 Bft)
07.05.2016 03:00 5,0 C 88 % 1012,0 hPa 0,0 l/m 0,0 km/h (0 Bft) N 3,3 C 5,0 C 0,1 km/h (0 Bft)
07.05.2016 04:00 4,4 C 90 % 1011,8 hPa 0,0 l/m 0,0 km/h (0 Bft) N 2,9 C 4,4 C 0,1 km/h (0 Bft)
07.05.2016 05:00 3,9 C 91 % 1011,5 hPa 0,0 l/m 0,0 km/h (0 Bft) N 2,6 C 3,9 C 0,1 km/h (0 Bft)
07.05.2016 06:00 3,7 C 92 % 1011,5 hPa 0,0 l/m 0,0 km/h (0 Bft) N 2,5 C 3,7 C 0,0 km/h (0 Bft)
07.05.2016 07:00 5,7 C 89 % 1011,8 hPa 0,0 l/m 0,1 km/h (0 Bft) N 4,0 C 5,7 C 0,3 km/h (0 Bft)
07.05.2016 08:00 11,9 C 72 % 1011,5 hPa 0,0 l/m 1,0 km/h (0 Bft) W-NW 6,9 C 11,9 C 2,0 km/h (1 Bft)
07.05.2016 09:00 16,8 C 57 % 1011,3 hPa 0,0 l/m 1,7 km/h (1 Bft) N-NW 8,0 C 16,8 C 3,2 km/h (1 Bft)
07.05.2016 10:00 19,0 C 48 % 1011,0 hPa 0,0 l/m 3,5 km/h (1 Bft) NW 7,8 C 19,0 C 6,3 km/h (2 Bft)
07.05.2016 11:00 20,1 C 43 % 1010,8 hPa 0,0 l/m 4,7 km/h (1 Bft) W-NW 7,2 C 20,1 C 8,8 km/h (2 Bft)
07.05.2016 12:00 21,2 C 40 % 1010,3 hPa 0,0 l/m 4,6 km/h (1 Bft) NW 7,0 C 21,2 C 8,5 km/h (2 Bft)
07.05.2016 13:00 22,1 C 37 % 1009,9 hPa 0,0 l/m 5,1 km/h (1 Bft) NW 6,8 C 22,0 C 9,1 km/h (2 Bft)
07.05.2016 14:00 22,5 C 35 % 1009,4 hPa 0,0 l/m 4,8 km/h (1 Bft) NW 6,4 C 22,5 C 8,7 km/h (2 Bft)
07.05.2016 15:00 22,4 C 35 % 1009,1 hPa 0,0 l/m 4,6 km/h (1 Bft) W-NW 6,1 C 22,3 C 8,6 km/h (2 Bft)
07.05.2016 16:00 22,2 C 32 % 1008,8 hPa 0,0 l/m 3,8 km/h (1 Bft) NW 4,7 C 22,1 C 6,8 km/h (2 Bft)
07.05.2016 17:00 21,8 C 30 % 1008,6 hPa 0,0 l/m 4,7 km/h (1 Bft) NW 3,2 C 21,7 C 8,7 km/h (2 Bft)
07.05.2016 18:00 22,2 C 27 % 1008,2 hPa 0,0 l/m 4,1 km/h (1 Bft) NW 2,5 C 22,2 C 7,4 km/h (2 Bft)
07.05.2016 19:00 20,9 C 30 % 1008,2 hPa 0,0 l/m 2,0 km/h (1 Bft) W 2,7 C 20,9 C 4,2 km/h (1 Bft)
07.05.2016 20:00 18,8 C 44 % 1008,5 hPa 0,0 l/m 0,2 km/h (0 Bft) N 6,2 C 18,8 C 0,6 km/h (0 Bft)
07.05.2016 21:00 15,9 C 58 % 1008,9 hPa 0,0 l/m 0,1 km/h (0 Bft) N 7,6 C 15,9 C 0,5 km/h (0 Bft)
07.05.2016 22:00 13,7 C 66 % 1009,4 hPa 0,0 l/m 0,3 km/h (0 Bft) N 7,5 C 13,7 C 0,7 km/h (0 Bft)
07.05.2016 23:00 12,5 C 69 % 1009,7 hPa 0,0 l/m 0,2 km/h (0 Bft) N 6,9 C 12,5 C 0,8 km/h (0 Bft)
08.05.2016 00:00 10,6 C 76 % 1009,7 hPa 0,0 l/m 0,2 km/h (0 Bft) N 6,5 C 10,6 C 0,7 km/h (0 Bft)
08.05.2016 01:00 9,6 C 80 % 1009,8 hPa 0,0 l/m 0,1 km/h (0 Bft) N 6,3 C 9,6 C 0,4 km/h (0 Bft)
08.05.2016 02:00 8,7 C 82 % 1009,9 hPa 0,0 l/m 0,0 km/h (0 Bft) N 5,8 C 8,7 C 0,0 km/h (0 Bft)
08.05.2016 03:00 7,3 C 86 % 1009,8 hPa 0,0 l/m 0,0 km/h (0 Bft) N 5,1 C 7,3 C 0,0 km/h (0 Bft)
08.05.2016 04:00 6,5 C 88 % 1009,7 hPa 0,0 l/m 0,0 km/h (0 Bft) N 4,6 C 6,5 C 0,2 km/h (0 Bft)
08.05.2016 05:00 5,7 C 89 % 1009,8 hPa 0,0 l/m 0,0 km/h (0 Bft) N 4,0 C 5,7 C 0,2 km/h (0 Bft)
08.05.2016 06:00 5,1 C 91 % 1010,0 hPa 0,0 l/m 0,0 km/h (0 Bft) N 3,8 C 5,1 C 0,2 km/h (0 Bft)
08.05.2016 07:00 7,0 C 86 % 1010,2 hPa 0,0 l/m 0,6 km/h (0 Bft) N 4,9 C 7,0 C 1,0 km/h (0 Bft)
08.05.2016 08:00 12,3 C 70 % 1010,3 hPa 0,0 l/m 1,3 km/h (1 Bft) O-SO 7,0 C 12,3 C 2,6 km/h (1 Bft)
08.05.2016 09:00 15,7 C 57 % 1010,2 hPa 0,0 l/m 2,9 km/h (1 Bft) NW 7,3 C 15,7 C 4,9 km/h (1 Bft)
08.05.2016 10:00 17,5 C 52 % 1009,9 hPa 0,0 l/m 3,0 km/h (1 Bft) NW 7,6 C 17,5 C 4,9 km/h (1 Bft)
08.05.2016 11:00 19,3 C 46 % 1009,7 hPa 0,0 l/m 4,1 km/h (1 Bft) S-SW 7,4 C 19,3 C 10,0 km/h (2 Bft)
08.05.2016 12:00 20,1 C 45 % 1009,4 hPa 0,0 l/m 4,6 km/h (1 Bft) SW 7,9 C 20,0 C 10,2 km/h (2 Bft)
08.05.2016 13:00 21,3 C 42 % 1009,2 hPa 0,0 l/m 5,2 km/h (1 Bft) W 8,0 C 21,4 C 13,7 km/h (3 Bft)
08.05.2016 14:00 22,2 C 38 % 1008,8 hPa 0,0 l/m 5,9 km/h (2 Bft) S-SW 7,1 C 22,1 C 13,5 km/h (3 Bft)
08.05.2016 15:00 23,1 C 31 % 1008,6 hPa 0,0 l/m 5,3 km/h (1 Bft) NW 5,1 C 23,1 C 12,1 km/h (2 Bft)
08.05.2016 16:00 23,3 C 29 % 1008,4 hPa 0,0 l/m 4,9 km/h (1 Bft) NW 3,9 C 23,2 C 12,1 km/h (2 Bft)
08.05.2016 17:00 22,5 C 34 % 1008,2 hPa 0,0 l/m 3,9 km/h (1 Bft) W-NW 5,7 C 22,5 C 7,1 km/h (2 Bft)
08.05.2016 18:00 20,8 C 40 % 1008,5 hPa 0,0 l/m 5,8 km/h (2 Bft) W-NW 6,6 C 20,5 C 11,2 km/h (2 Bft)
08.05.2016 19:00 16,8 C 58 % 1008,7 hPa 0,0 l/m 1,9 km/h (1 Bft) S 8,4 C 16,8 C 5,2 km/h (1 Bft)
08.05.2016 20:00 15,7 C 60 % 1009,2 hPa 0,0 l/m 1,3 km/h (1 Bft) NW 7,9 C 15,7 C 3,9 km/h (1 Bft)
08.05.2016 21:00 14,4 C 66 % 1009,4 hPa 0,0 l/m 0,4 km/h (0 Bft) NW 8,0 C 14,4 C 1,9 km/h (1 Bft)
08.05.2016 22:00 12,3 C 77 % 1009,8 hPa 0,0 l/m 0,4 km/h (0 Bft) W-NW 8,3 C 12,3 C 1,9 km/h (1 Bft)
08.05.2016 23:00 10,3 C 80 % 1010,0 hPa 0,0 l/m 0,4 km/h (0 Bft) W-NW 7,1 C 10,3 C 1,6 km/h (1 Bft)
Min-Datum _ 05.05.16 08.05.16 08.05.16 - 08.05.16 - 05.05.16 05.05.16 08.05.16
_ Min-Zeit 06:30 16:30 17:30 - 23:25 - 06:30 06:30 23:25
Minimum _ -1,9 C 26 % 1008,1 hPa - 0,0 km/h (0 Bft) - -3,0 C -1,9 C 0,0 km/h (0 Bft)
Max-Datum _ 08.05.16 04.05.16 04.05.16 03.05.16 05.05.16 - 08.05.16 08.05.16 05.05.16
_ Max-Zeit 16:50 08:00 08:00 15:35 12:12 - 19:40 16:50 15:30
Maximum _ 23,8 C 98 % 1028,4 hPa 0,3 l/m 16,1 km/h
W (3 Bft)
- 9,6 C 23,8 C 25,7 km/h
NW (4 Bft)
Durchschnitt _ 10,3 C 69 % 1018,3 hPa #1,0 l/m 2,1 km/h (1 Bft) N 3,8 C 10,3 C 5,0 km/h (1 Bft)